This is the latest recevied weather packets stored in our database for station/object NC4J. If no packets are shown the sender has not sent any weather packets the latest 1 day(s).
| Time | Temp. | Humidity | Pressure | Rain* | Wind** | Luminosity | Snow |
|---|---|---|---|---|---|---|---|
| 1778051154 | 17.78° C | 53% | 1014.5 hPa | 0 mm | 0.45 m/s, 340° | 0 W/m² | - |
| 1778050851 | 17.78° C | 52% | 1014 hPa | 0 mm | 0 m/s | 0 W/m² | - |
| 1778050548 | 18.33° C | 51% | 1014.1 hPa | 0 mm | 0.45 m/s, 335° | 0 W/m² | - |
| 1778050245 | 18.33° C | 50% | 1014 hPa | 0 mm | 0.45 m/s, 53° | 0 W/m² | - |
| 1778049942 | 18.33° C | 50% | 1014.2 hPa | 0 mm | 0.45 m/s, 2° | 0 W/m² | - |
| 1778049643 | 18.89° C | 49% | 1014 hPa | 0 mm | 0 m/s | 0 W/m² | - |
| 1778049342 | 18.33° C | 49% | 1014.5 hPa | 0 mm | 0.89 m/s, 302° | 0 W/m² | - |
| 1778049038 | 17.78° C | 51% | 1014.1 hPa | 0 mm | 2.24 m/s, 336° | 0 W/m² | - |
| 1778048737 | 17.22° C | 54% | 1014.5 hPa | 0 mm | 0.89 m/s, 13° | 0 W/m² | - |
| 1778048433 | 17.22° C | 55% | 1014.6 hPa | 0 mm | 0.45 m/s, 94° | 0 W/m² | - |
| 1778048129 | 17.22° C | 57% | 1014.2 hPa | 0 mm | 2.24 m/s, 10° | 0 W/m² | - |
| 1778047827 | 17.22° C | 57% | 1014.6 hPa | 0 mm | 0.45 m/s, 38° | 0 W/m² | - |
| 1778047525 | 17.22° C | 56% | 1014.6 hPa | 0 mm | 0 m/s | 0 W/m² | - |
| 1778047222 | 17.78° C | 56% | 1014.6 hPa | 0 mm | 0 m/s | 0 W/m² | - |
| 1778046919 | 17.78° C | 53% | 1014.6 hPa | 0 mm | 0.45 m/s, 81° | 0 W/m² | - |
| 1778046615 | 18.33° C | 52% | 1014.6 hPa | 0 mm | 0 m/s | 0 W/m² | - |
| 1778046313 | 18.33° C | 53% | 1014.6 hPa | 0 mm | 0 m/s | 0 W/m² | - |
| 1778046008 | 18.33° C | 52% | 1014.6 hPa | 0 mm | 0 m/s | 0 W/m² | - |
| 1778045707 | 18.33° C | 52% | 1014.5 hPa | 0 mm | 0.45 m/s, 335° | 0 W/m² | - |
| 1778045405 | 18.33° C | 52% | 1014.4 hPa | 0 mm | 0 m/s | 0 W/m² | - |
| 1778045103 | 18.33° C | 52% | 1014.1 hPa | 0 mm | 0.45 m/s, 43° | 0 W/m² | - |
| 1778044800 | 18.89° C | 51% | 1013.9 hPa | 0 mm | 0.89 m/s, 117° | 0 W/m² | - |
| 1778044497 | 18.33° C | 52% | 1014.5 hPa | 0 mm | 0 m/s | 0 W/m² | - |
| 1778044194 | 18.89° C | 52% | 1014.7 hPa | 0 mm | 0.45 m/s, 86° | 0 W/m² | - |
| 1778043892 | 18.89° C | 51% | 1014.7 hPa | 0 mm | 0 m/s | 0 W/m² | - |
* Rain latest hour (hover to see other rain measurements)
** Current wind speed in m/s (hover to see current wind gust speed)